createdAt,value
2018-10-11T00:00:10.065Z,25.97
2018-10-11T00:02:38.724Z,24.80
2018-10-11T00:05:07.439Z,31.97
2018-10-11T00:07:36.192Z,34.07
2018-10-11T00:10:04.948Z,33.33
2018-10-11T00:12:33.625Z,28.67
2018-10-11T00:15:02.264Z,29.33
2018-10-11T00:17:30.948Z,26.00
2018-10-11T00:19:59.644Z,28.27
2018-10-11T00:22:28.356Z,23.10
2018-10-11T00:24:57.014Z,24.77
2018-10-11T00:27:25.723Z,26.47
2018-10-11T00:29:54.382Z,26.37
2018-10-11T00:32:23.048Z,27.23
2018-10-11T00:34:51.727Z,24.77
2018-10-11T00:37:30.597Z,25.00
2018-10-11T00:39:59.248Z,28.60
2018-10-11T00:42:27.933Z,33.33
2018-10-11T00:44:56.574Z,29.40
2018-10-11T00:47:25.235Z,46.93
2018-10-11T00:49:53.893Z,31.47
2018-10-11T00:52:22.581Z,35.30
2018-10-11T00:54:51.240Z,33.07
2018-10-11T00:57:19.886Z,32.40
2018-10-11T00:59:48.554Z,27.20
2018-10-11T01:02:17.232Z,28.50
2018-10-11T01:04:45.872Z,32.27
2018-10-11T01:07:14.578Z,32.63
2018-10-11T01:09:43.272Z,29.10
2018-10-11T01:12:11.956Z,30.20
2018-10-11T01:14:40.617Z,30.47
2018-10-11T01:17:09.757Z,29.50
2018-10-11T01:19:38.429Z,28.90
2018-10-11T01:22:07.177Z,27.50
2018-10-11T01:24:35.897Z,26.37
2018-10-11T01:27:04.610Z,27.70
2018-10-11T01:29:33.477Z,26.47
2018-10-11T01:32:02.186Z,29.90
2018-10-11T01:34:30.910Z,27.63
2018-10-11T01:36:59.576Z,28.20
2018-10-11T01:39:28.249Z,31.87
2018-10-11T01:41:56.941Z,27.47
2018-10-11T01:44:25.644Z,27.13
2018-10-11T01:46:54.330Z,31.37
2018-10-11T01:49:22.986Z,27.30
2018-10-11T01:51:51.661Z,28.13
2018-10-11T01:54:20.391Z,26.70
2018-10-11T01:56:49.101Z,31.40
2018-10-11T01:59:17.939Z,28.20
2018-10-11T02:01:46.584Z,32.70
2018-10-11T02:04:15.205Z,31.17
2018-10-11T02:06:43.897Z,27.10
2018-10-11T02:09:12.575Z,30.50
2018-10-11T02:11:41.256Z,29.90
2018-10-11T02:14:09.925Z,26.97
2018-10-11T02:16:38.562Z,26.43
2018-10-11T02:19:07.343Z,26.37
2018-10-11T02:21:35.989Z,25.67
2018-10-11T02:24:04.697Z,30.07
2018-10-11T02:26:33.353Z,29.37
2018-10-11T02:29:02.045Z,34.80
2018-10-11T02:31:30.706Z,30.47
2018-10-11T02:33:59.359Z,29.77
2018-10-11T02:36:28.042Z,26.43
2018-10-11T02:38:56.711Z,26.57
2018-10-11T02:41:25.361Z,28.27
2018-10-11T02:43:54.391Z,27.17
2018-10-11T02:46:23.093Z,27.37
2018-10-11T02:48:52.863Z,28.93
2018-10-11T02:51:21.552Z,25.00
2018-10-11T02:53:50.242Z,28.83
2018-10-11T02:56:20.517Z,28.60
2018-10-11T02:59:03.714Z,29.40
2018-10-11T03:01:32.566Z,28.07
2018-10-11T03:04:03.717Z,33.57
2018-10-11T03:06:34.299Z,27.60
2018-10-11T03:09:03.260Z,29.20
2018-10-11T03:11:32.152Z,29.43
2018-10-11T03:14:00.981Z,30.80
2018-10-11T03:16:29.651Z,28.40
2018-10-11T03:18:58.348Z,28.57
2018-10-11T03:21:27.062Z,33.17
2018-10-11T03:23:55.848Z,27.40
2018-10-11T03:26:24.506Z,28.50
2018-10-11T03:28:53.193Z,31.37
2018-10-11T03:31:21.939Z,35.20
2018-10-11T03:33:50.598Z,26.13
2018-10-11T03:36:19.273Z,28.60
2018-10-11T03:38:47.926Z,26.37
2018-10-11T03:41:16.606Z,27.77
2018-10-11T03:43:45.258Z,27.70
2018-10-11T03:46:13.955Z,29.30
2018-10-11T03:48:42.642Z,27.53
2018-10-11T03:51:11.372Z,28.80
2018-10-11T03:53:40.115Z,29.00
2018-10-11T03:56:08.773Z,28.30
2018-10-11T03:58:37.447Z,33.13
2018-10-11T04:01:06.178Z,31.43
2018-10-11T04:03:34.897Z,26.70
2018-10-11T04:06:03.580Z,28.30
2018-10-11T04:08:32.256Z,28.60
2018-10-11T04:11:00.916Z,26.33
2018-10-11T04:13:29.572Z,23.97
2018-10-11T04:15:58.249Z,26.93
2018-10-11T04:18:26.889Z,30.57
2018-10-11T04:20:55.575Z,29.23
2018-10-11T04:23:29.510Z,27.70
2018-10-11T04:25:58.876Z,25.37
2018-10-11T04:28:28.513Z,27.50
2018-10-11T04:30:58.233Z,28.93
2018-10-11T04:33:27.513Z,26.93
2018-10-11T04:35:56.682Z,29.30
2018-10-11T04:38:25.619Z,31.97
2018-10-11T04:40:54.298Z,33.87
2018-10-11T04:43:22.970Z,35.83
2018-10-11T04:45:51.640Z,30.77
2018-10-11T04:48:20.298Z,32.50
2018-10-11T04:50:48.999Z,30.27
2018-10-11T04:53:17.689Z,25.57
2018-10-11T04:55:46.353Z,29.20
2018-10-11T04:58:14.985Z,31.47
2018-10-11T05:00:43.658Z,35.53
2018-10-11T05:03:13.077Z,34.33
2018-10-11T05:05:42.590Z,35.37
2018-10-11T05:08:11.648Z,39.03
2018-10-11T05:10:40.424Z,35.90
2018-10-11T05:13:09.212Z,34.77
2018-10-11T05:15:42.401Z,36.00
2018-10-11T05:18:12.090Z,38.23
2018-10-11T05:20:40.744Z,34.27
2018-10-11T05:23:11.992Z,38.67
2018-10-11T05:26:00.991Z,36.97
2018-10-11T05:28:29.750Z,37.50
2018-10-11T05:30:58.437Z,35.20
2018-10-11T05:33:27.779Z,32.13
2018-10-11T05:35:56.521Z,33.40
2018-10-11T05:38:25.277Z,34.00
2018-10-11T05:40:54.021Z,35.70
2018-10-11T05:43:22.777Z,35.60
2018-10-11T05:45:53.466Z,38.97
2018-10-11T05:48:22.471Z,38.63
2018-10-11T05:50:51.657Z,37.40
2018-10-11T05:53:20.605Z,37.63
2018-10-11T05:55:50.079Z,35.57
2018-10-11T05:58:19.610Z,36.43
2018-10-11T06:00:48.380Z,35.73
2018-10-11T06:03:17.110Z,32.20
2018-10-11T06:05:45.840Z,35.00
2018-10-11T06:08:14.609Z,30.10
2018-10-11T06:10:44.372Z,33.27
2018-10-11T06:13:13.157Z,32.37
2018-10-11T06:15:42.271Z,34.93
2018-10-11T06:18:11.556Z,32.77
2018-10-11T06:20:40.603Z,29.47
2018-10-11T06:23:09.409Z,30.43
2018-10-11T06:25:52.406Z,32.37
2018-10-11T06:28:21.281Z,32.40
2018-10-11T06:30:50.040Z,32.93
2018-10-11T06:33:18.835Z,32.37
2018-10-11T06:35:47.685Z,31.30
2018-10-11T06:38:16.459Z,40.53
2018-10-11T06:40:45.238Z,33.53
2018-10-11T06:43:14.026Z,31.97
2018-10-11T06:45:43.753Z,32.13
2018-10-11T06:48:12.541Z,32.73
2018-10-11T06:50:42.675Z,39.30
2018-10-11T06:53:11.749Z,39.10
2018-10-11T06:55:41.172Z,38.57
2018-10-11T06:58:09.814Z,36.00
2018-10-11T07:00:38.541Z,29.90
2018-10-11T07:03:07.314Z,35.40
2018-10-11T07:05:41.774Z,35.40
2018-10-11T07:08:10.368Z,35.27
2018-10-11T07:10:39.087Z,37.30
2018-10-11T07:13:08.132Z,36.23
2018-10-11T07:15:36.810Z,32.37
2018-10-11T07:18:05.526Z,33.93
2018-10-11T07:20:34.233Z,31.33
2018-10-11T07:23:02.947Z,33.23
2018-10-11T07:25:31.604Z,31.30
2018-10-11T07:28:00.264Z,31.60
2018-10-11T07:30:28.963Z,29.93
2018-10-11T07:32:57.628Z,36.20
2018-10-11T07:35:26.371Z,33.60
2018-10-11T07:37:54.977Z,37.40
2018-10-11T07:40:40.367Z,35.07
2018-10-11T07:43:09.011Z,34.43
2018-10-11T07:45:37.672Z,34.77
2018-10-11T07:48:06.345Z,34.40
2018-10-11T07:50:35.007Z,29.80
2018-10-11T07:53:03.648Z,32.03
2018-10-11T07:55:32.341Z,29.93
2018-10-11T07:58:01.010Z,28.17
2018-10-11T08:00:29.640Z,26.70
2018-10-11T08:02:58.289Z,27.10
2018-10-11T08:05:26.934Z,30.40
2018-10-11T08:07:55.627Z,32.43
2018-10-11T08:10:24.364Z,24.27
2018-10-11T08:12:52.998Z,31.27
2018-10-11T08:15:21.757Z,24.13
2018-10-11T08:17:50.699Z,25.93
2018-10-11T08:20:19.182Z,24.80
2018-10-11T08:22:47.764Z,24.27
2018-10-11T08:25:16.842Z,28.60
2018-10-11T08:27:45.220Z,21.30
2018-10-11T08:30:13.887Z,22.33
2018-10-11T08:32:42.753Z,24.83
2018-10-11T08:35:11.248Z,26.60
2018-10-11T08:37:39.945Z,23.63
2018-10-11T08:40:08.601Z,25.43
2018-10-11T08:42:37.239Z,25.70
2018-10-11T08:45:06.306Z,24.00
2018-10-11T08:47:34.948Z,21.97
2018-10-11T08:50:03.662Z,21.90
2018-10-11T08:52:32.288Z,23.43
2018-10-11T08:55:01.007Z,21.17
2018-10-11T08:57:29.694Z,25.13
2018-10-11T08:59:58.380Z,25.70
2018-10-11T09:02:27.068Z,21.43
2018-10-11T09:04:55.733Z,21.57
2018-10-11T09:07:24.360Z,24.77
2018-10-11T09:09:53.686Z,22.13
2018-10-11T09:12:21.752Z,22.93
2018-10-11T09:14:50.424Z,21.67
2018-10-11T09:17:19.097Z,22.97
2018-10-11T09:19:47.740Z,20.80
2018-10-11T09:22:16.432Z,23.40
2018-10-11T09:24:45.084Z,20.00
2018-10-11T09:27:13.797Z,17.40
2018-10-11T09:29:42.445Z,18.60
2018-10-11T09:32:11.073Z,18.57
2018-10-11T09:34:39.769Z,20.67
2018-10-11T09:37:08.405Z,18.40
2018-10-11T09:39:37.082Z,17.67
2018-10-11T09:42:05.720Z,19.10
2018-10-11T09:44:34.433Z,17.43
2018-10-11T09:47:03.225Z,17.40
2018-10-11T09:49:41.977Z,17.00
2018-10-11T09:52:10.687Z,14.77
2018-10-11T09:54:39.503Z,15.17
2018-10-11T09:57:14.572Z,16.43
2018-10-11T09:59:43.217Z,17.63
2018-10-11T10:02:12.640Z,16.53
2018-10-11T10:04:44.537Z,15.20
2018-10-11T10:07:13.405Z,17.07
2018-10-11T10:09:43.003Z,15.40
2018-10-11T10:12:12.522Z,14.53
2018-10-11T10:14:42.136Z,18.57
2018-10-11T10:17:10.968Z,14.20
2018-10-11T10:19:39.805Z,13.80
2018-10-11T10:22:08.824Z,14.30
2018-10-11T10:24:38.900Z,15.07
2018-10-11T10:27:07.682Z,17.50
2018-10-11T10:29:36.719Z,14.90
2018-10-11T10:32:05.897Z,13.47
2018-10-11T10:34:34.550Z,11.77
2018-10-11T10:37:03.234Z,12.80
2018-10-11T10:39:31.912Z,13.23
2018-10-11T10:42:00.538Z,15.50
2018-10-11T10:44:29.194Z,12.63
2018-10-11T10:46:57.837Z,13.27
2018-10-11T10:49:26.458Z,17.40
2018-10-11T10:51:55.223Z,15.40
2018-10-11T10:54:29.909Z,12.97
2018-10-11T10:56:59.224Z,13.70
2018-10-11T10:59:27.925Z,17.20
2018-10-11T11:01:56.698Z,13.90
2018-10-11T11:04:25.599Z,13.07
2018-10-11T11:06:54.333Z,11.80
2018-10-11T11:09:23.344Z,12.43
2018-10-11T11:11:52.827Z,14.83
2018-10-11T11:14:21.478Z,11.40
2018-10-11T11:16:50.148Z,14.70
2018-10-11T11:19:18.785Z,13.50
2018-10-11T11:21:47.449Z,12.70
2018-10-11T11:24:16.112Z,11.70
2018-10-11T11:26:45.769Z,12.60
2018-10-11T11:29:14.423Z,13.90
2018-10-11T11:31:43.044Z,11.50
2018-10-11T11:34:11.693Z,15.13
2018-10-11T11:36:40.465Z,14.70
2018-10-11T11:39:10.219Z,11.10
2018-10-11T11:41:39.241Z,12.80
2018-10-11T11:44:08.191Z,11.30
2018-10-11T11:46:36.895Z,11.73
2018-10-11T11:49:07.651Z,11.90
2018-10-11T11:51:38.619Z,11.27
2018-10-11T11:54:12.573Z,10.40
2018-10-11T11:56:41.332Z,11.67
2018-10-11T11:59:10.055Z,11.67
2018-10-11T12:01:38.700Z,12.77
2018-10-11T12:04:07.387Z,11.73
2018-10-11T12:06:36.092Z,11.23
2018-10-11T12:09:08.977Z,11.57
2018-10-11T12:11:37.264Z,11.27
2018-10-11T12:14:06.253Z,11.27
2018-10-11T12:16:35.046Z,10.93
2018-10-11T12:19:03.700Z,11.77
2018-10-11T12:21:32.364Z,11.47
2018-10-11T12:24:00.966Z,10.30
2018-10-11T12:26:29.675Z,11.30
2018-10-11T12:28:59.545Z,12.17
2018-10-11T12:31:28.111Z,14.63
2018-10-11T12:33:56.890Z,11.40
2018-10-11T12:36:25.559Z,10.57
2018-10-11T12:38:55.116Z,10.23
2018-10-11T12:41:22.920Z,11.10
2018-10-11T12:43:51.616Z,11.30
2018-10-11T12:46:20.329Z,13.43
2018-10-11T12:48:48.975Z,10.20
2018-10-11T12:51:24.704Z,9.23
2018-10-11T12:53:53.394Z,11.03
2018-10-11T12:56:22.106Z,11.73
2018-10-11T12:58:50.894Z,10.10
2018-10-11T13:01:21.126Z,10.87
2018-10-11T13:03:48.446Z,11.03
2018-10-11T13:06:30.868Z,12.60
2018-10-11T13:08:59.550Z,10.00
2018-10-11T13:11:28.210Z,16.60
2018-10-11T13:13:56.941Z,11.77
2018-10-11T13:16:25.667Z,11.07
2018-10-11T13:18:54.321Z,10.03
2018-10-11T13:21:22.985Z,9.87
2018-10-11T13:23:51.739Z,10.87
2018-10-11T13:26:22.501Z,10.23
2018-10-11T13:28:51.209Z,8.87
2018-10-11T13:31:19.885Z,11.10
2018-10-11T13:33:51.819Z,9.97
2018-10-11T13:36:17.271Z,11.73
2018-10-11T13:38:45.956Z,10.47
2018-10-11T13:41:14.742Z,11.07
2018-10-11T13:43:43.368Z,11.37
2018-10-11T13:46:12.118Z,11.80
2018-10-11T13:48:40.740Z,9.73
2018-10-11T13:51:09.496Z,10.03
2018-10-11T13:53:38.485Z,12.10
2018-10-11T13:56:07.458Z,10.63
2018-10-11T13:58:41.730Z,16.90
2018-10-11T14:01:10.357Z,10.13
2018-10-11T14:03:39.057Z,11.87
2018-10-11T14:06:08.045Z,10.43
2018-10-11T14:08:39.216Z,10.43
2018-10-11T14:11:08.520Z,8.93
2018-10-11T14:13:37.731Z,10.60
2018-10-11T14:16:06.465Z,9.90
2018-10-11T14:18:35.528Z,10.40
2018-10-11T14:21:04.770Z,12.47
2018-10-11T14:23:33.492Z,9.70
2018-10-11T14:26:02.124Z,9.87
2018-10-11T14:28:30.865Z,10.30
2018-10-11T14:30:59.517Z,9.73
2018-10-11T14:33:28.183Z,12.13
2018-10-11T14:35:56.837Z,10.07
2018-10-11T14:38:25.515Z,11.20
2018-10-11T14:40:54.234Z,9.93
2018-10-11T14:43:22.956Z,12.20
2018-10-11T14:45:51.638Z,12.00
2018-10-11T14:48:21.093Z,10.13
2018-10-11T14:50:49.818Z,9.57
2018-10-11T14:53:18.457Z,10.73
2018-10-11T14:55:47.168Z,10.37
2018-10-11T14:58:15.833Z,10.30
2018-10-11T15:00:44.571Z,10.47
2018-10-11T15:03:13.302Z,12.23
2018-10-11T15:05:41.966Z,12.70
2018-10-11T15:08:10.612Z,10.53
2018-10-11T15:10:39.309Z,9.07
2018-10-11T15:13:07.988Z,14.33
2018-10-11T15:15:37.533Z,9.63
2018-10-11T15:18:06.529Z,9.17
2018-10-11T15:20:35.186Z,10.13
2018-10-11T15:23:03.852Z,9.37
2018-10-11T15:25:32.521Z,15.67
2018-10-11T15:28:01.217Z,11.30
2018-10-11T15:30:33.622Z,10.70
2018-10-11T15:33:02.293Z,11.00
2018-10-11T15:35:30.971Z,9.73
2018-10-11T15:37:59.625Z,9.37
2018-10-11T15:40:28.305Z,9.43
2018-10-11T15:42:56.968Z,9.30
2018-10-11T15:45:25.654Z,11.50
2018-10-11T15:47:54.328Z,10.00
2018-10-11T15:50:22.988Z,9.70
2018-10-11T15:52:51.674Z,10.57
2018-10-11T15:55:20.316Z,8.77
2018-10-11T15:57:49.065Z,12.57
2018-10-11T16:00:17.768Z,9.67
2018-10-11T16:02:46.410Z,8.70
2018-10-11T16:05:15.133Z,12.13
2018-10-11T16:07:43.793Z,10.90
2018-10-11T16:10:12.488Z,9.40
2018-10-11T16:12:41.121Z,10.70
2018-10-11T16:15:09.764Z,9.67
2018-10-11T16:17:38.542Z,10.00
2018-10-11T16:20:07.189Z,11.83
2018-10-11T16:22:35.896Z,9.77
2018-10-11T16:25:04.650Z,10.20
2018-10-11T16:27:33.297Z,10.30
2018-10-11T16:30:02.003Z,10.63
2018-10-11T16:32:30.674Z,11.87
2018-10-11T16:34:59.345Z,15.33
2018-10-11T16:37:28.038Z,9.10
2018-10-11T16:39:56.685Z,10.27
2018-10-11T16:42:25.374Z,12.60
2018-10-11T16:44:54.041Z,10.17
2018-10-11T16:47:26.521Z,10.03
2018-10-11T16:49:55.214Z,10.00
2018-10-11T16:52:23.866Z,10.10
2018-10-11T16:54:52.528Z,12.77
2018-10-11T16:57:21.176Z,10.17
2018-10-11T16:59:49.872Z,11.50
2018-10-11T17:02:18.650Z,21.80
2018-10-11T17:04:47.304Z,21.80
2018-10-11T17:07:16.059Z,14.13
2018-10-11T17:09:44.746Z,12.30
2018-10-11T17:12:13.406Z,10.53
2018-10-11T17:14:42.077Z,11.27
2018-10-11T17:17:10.767Z,13.30
2018-10-11T17:19:39.452Z,10.23
2018-10-11T17:22:08.293Z,11.37
2018-10-11T17:24:36.897Z,12.00
2018-10-11T17:27:05.552Z,11.03
2018-10-11T17:29:34.321Z,9.83
2018-10-11T17:32:03.033Z,10.70
2018-10-11T17:34:44.005Z,15.07
2018-10-11T17:37:12.680Z,11.37
2018-10-11T17:39:41.338Z,14.43
2018-10-11T17:42:10.108Z,13.00
2018-10-11T17:44:38.756Z,16.10
2018-10-11T17:47:07.677Z,11.93
2018-10-11T17:49:36.363Z,14.57
2018-10-11T17:52:05.019Z,15.07
2018-10-11T17:54:33.904Z,11.90
2018-10-11T17:57:02.573Z,15.53
2018-10-11T17:59:31.240Z,14.70
2018-10-11T18:01:59.941Z,14.07
2018-10-11T18:04:28.601Z,14.80
2018-10-11T18:06:57.268Z,16.57
2018-10-11T18:09:25.945Z,14.40
2018-10-11T18:11:54.614Z,20.10
2018-10-11T18:14:23.281Z,15.20
2018-10-11T18:16:52.009Z,18.00
2018-10-11T18:19:20.750Z,14.47
2018-10-11T18:21:49.523Z,15.20
2018-10-11T18:24:18.070Z,15.80
2018-10-11T18:26:46.732Z,15.47
2018-10-11T18:29:15.465Z,16.80
2018-10-11T18:31:44.094Z,16.03
2018-10-11T18:34:12.793Z,16.60
2018-10-11T18:36:41.545Z,16.57
2018-10-11T18:39:12.103Z,17.30
2018-10-11T18:41:41.100Z,16.40
2018-10-11T18:44:10.372Z,18.37
2018-10-11T18:46:39.073Z,18.10
2018-10-11T18:49:08.200Z,20.43
2018-10-11T18:51:36.898Z,17.13
2018-10-11T18:57:09.384Z,19.70
2018-10-11T18:59:38.624Z,17.07
2018-10-11T19:02:07.462Z,16.40
2018-10-11T19:04:36.188Z,16.80
2018-10-11T19:07:05.375Z,17.23
2018-10-11T19:09:34.105Z,18.80
2018-10-11T19:12:02.895Z,17.07
2018-10-11T19:14:31.564Z,19.90
2018-10-11T19:17:00.233Z,17.90
2018-10-11T19:19:29.929Z,20.87
2018-10-11T19:21:58.837Z,17.73
2018-10-11T19:24:27.520Z,17.17
2018-10-11T19:26:56.188Z,22.30
2018-10-11T19:29:24.879Z,17.23
2018-10-11T19:31:53.573Z,20.90
2018-10-11T19:34:22.252Z,18.10
2018-10-11T19:36:50.925Z,18.53
2018-10-11T19:39:19.586Z,17.50
2018-10-11T19:44:41.141Z,20.03
2018-10-11T19:47:12.939Z,17.87
2018-10-11T19:49:41.690Z,17.70
2018-10-11T19:52:10.336Z,18.97
2018-10-11T19:54:39.004Z,20.17
2018-10-11T19:57:07.751Z,17.63
2018-10-11T20:05:23.214Z,18.93
2018-10-11T20:07:51.907Z,15.30
2018-10-11T20:10:21.186Z,16.80
2018-10-11T20:12:50.088Z,17.13
2018-10-11T20:15:18.728Z,17.80
2018-10-11T20:17:47.397Z,19.07
2018-10-11T20:20:16.059Z,17.80
2018-10-11T20:22:44.737Z,17.90
2018-10-11T20:25:13.402Z,17.50
2018-10-11T20:27:42.293Z,19.53
2018-10-11T20:30:10.953Z,21.47
2018-10-11T20:32:39.616Z,21.40
2018-10-11T20:35:08.296Z,23.67
2018-10-11T20:37:36.959Z,19.10
2018-10-11T20:40:05.656Z,18.07
2018-10-11T20:42:34.298Z,19.30
2018-10-11T20:45:03.009Z,22.93
2018-10-11T20:47:31.669Z,18.10
2018-10-11T20:50:00.296Z,18.10
2018-10-11T20:52:28.970Z,20.03
2018-10-11T20:54:57.623Z,18.77
2018-10-11T20:57:26.346Z,18.20
2018-10-11T20:59:55.004Z,18.50
2018-10-11T21:02:23.692Z,18.53
2018-10-11T21:04:52.361Z,19.07
2018-10-11T21:07:20.986Z,22.50
2018-10-11T21:09:49.616Z,17.60
2018-10-11T21:12:18.261Z,19.73
2018-10-11T21:14:46.900Z,23.03
2018-10-11T21:17:15.779Z,21.77
2018-10-11T21:19:50.368Z,18.00
2018-10-11T21:22:19.045Z,19.77
2018-10-11T21:24:47.693Z,18.17
2018-10-11T21:27:16.350Z,19.73
2018-10-11T21:29:45.026Z,18.13
2018-10-11T21:32:13.666Z,19.07
2018-10-11T21:34:42.317Z,20.40
2018-10-11T21:37:10.957Z,19.03
2018-10-11T21:39:39.582Z,20.33
2018-10-11T21:42:08.230Z,16.73
2018-10-11T21:44:36.854Z,19.40
2018-10-11T21:47:05.529Z,17.93
2018-10-11T21:49:34.160Z,19.07
2018-10-11T21:52:02.789Z,19.60
2018-10-11T21:54:31.436Z,21.23
2018-10-11T21:57:00.044Z,19.50
2018-10-11T21:59:28.704Z,20.00
2018-10-11T22:01:57.330Z,22.17
2018-10-11T22:04:25.991Z,18.53
2018-10-11T22:06:54.620Z,19.30
2018-10-11T22:09:23.261Z,19.17
2018-10-11T22:11:51.917Z,20.07
2018-10-11T22:14:20.617Z,19.03
2018-10-11T22:16:49.256Z,18.10
2018-10-11T22:19:17.913Z,17.87
2018-10-11T22:21:46.532Z,18.70
2018-10-11T22:24:15.196Z,18.00
2018-10-11T22:26:43.833Z,18.57
2018-10-11T22:29:12.448Z,17.43
2018-10-11T22:31:41.099Z,17.57
2018-10-11T22:34:09.773Z,21.70
2018-10-11T22:36:38.506Z,17.10
2018-10-11T22:39:08.989Z,17.53
2018-10-11T22:41:38.260Z,18.43
2018-10-11T22:44:07.214Z,17.77
2018-10-11T22:46:35.961Z,19.60
2018-10-11T22:49:04.753Z,17.03
2018-10-11T22:51:33.406Z,16.37
2018-10-11T22:54:02.145Z,16.90
2018-10-11T22:56:30.808Z,18.70
2018-10-11T22:58:59.431Z,17.70
2018-10-11T23:01:28.061Z,17.73
2018-10-11T23:03:56.690Z,18.40
2018-10-11T23:06:25.357Z,18.83
2018-10-11T23:08:53.984Z,18.80
2018-10-11T23:11:23.119Z,17.40
2018-10-11T23:13:51.738Z,16.97
2018-10-11T23:16:20.370Z,20.53
2018-10-11T23:18:49.021Z,18.33
2018-10-11T23:21:17.654Z,22.50
2018-10-11T23:23:46.311Z,17.77
2018-10-11T23:26:14.953Z,18.47
2018-10-11T23:28:43.580Z,18.47
2018-10-11T23:31:12.637Z,17.93
2018-10-11T23:33:42.133Z,17.80
2018-10-11T23:36:10.896Z,17.50
2018-10-11T23:38:39.660Z,18.63
2018-10-11T23:41:08.792Z,18.13
2018-10-11T23:43:37.688Z,17.07
2018-10-11T23:46:06.530Z,19.00
2018-10-11T23:48:35.171Z,17.70
2018-10-11T23:51:03.833Z,16.97
2018-10-11T23:53:32.452Z,17.77
2018-10-11T23:56:01.074Z,19.40
2018-10-11T23:58:29.720Z,17.27
